Atkinson, NC

11:15 AM EDT on October 25, 2014 (GMT -0400)
KD4JRX HORSE BRANCH RD | Change Station
CLOSE
Current Station
Personal Weather Station
Location: WATHA, NC
Elevation: 58 ft
Nearby Weather Stations

Elev 58 ft 34.61 °N, 77.99 °W | Updated 0 second ago

Clear
Clear
78.8 °F
Feels Like 79 °F
N
0.7
Wind Variable Wind from SE
Gusts 3.8 mph

Today
High -- | Low -- °F
--% Chance of Precip.
Yesterday
High -- | Low -- °F
Precip. -- in
7:26 AM 6:26 PM
Waxing Crescent, 3% visible
Pressure 29.99 in
Visibility 10.0 miles
Clouds Clear
Heat Index 79 °F
Dew Point 56 °F
Humidity 45%
Rainfall 0.00 in
Snow Depth Not available.
UV 4 out of 12
Pollen 2.40 out of 12
Air Quality Not available.
Flu Activity Local Activity
METAR KEYF 251455Z AUTO 00000KT 10SM CLR 16/08 A2999 RMK AO2 T01550083

More Conditions Fewer Conditions

Pressure 29.99 in
Visibility 10.0 miles
Clouds Clear
Heat Index 79 °F
Dew Point 56 °F
Humidity 45%
Rainfall 0.00 in
Snow Depth Not available.
UV 4 out of 12
Pollen 2.40 out of 12
Air Quality Not available.
Flu Activity Local Activity
METAR KEYF 251455Z AUTO 00000KT 10SM CLR 16/08 A2999 RMK AO2 T01550083

More Conditions Fewer Conditions

10-Day Weather Forecast

Almanac

Astronomy

Oct. 25, 2014 Rise Set
Actual Time 7:26 AM EDT 6:26 PM EDT
Civil Twilight 7:00 AM EDT 6:52 PM EDT
Nautical Twilight 6:31 AM EDT 7:21 PM EDT
Astronomical Twilight 6:02 AM EDT 7:50 PM EDT
Moon 9:00 AM EDT 7:51 PM EDT
Length of Visible Light 11h 51m
Length of Day
10h 59m
Tomorrow will be 1m 58s shorter.
Waxing Crescent, 3% of the Moon is Illuminated
Today
Waxing Crescent
Oct 30
First Quarter
Nov 6
Full
Nov 14
Last Quarter
Nov 22
New

Today's Extremes

State Highs State Lows

Community

WunderPhotos

Upload Photos

1,764,869 photos uploaded!

Nearby

Snow Depth

Station Depth Elevation
No new snow has been reported.

Earthquake Activity

City Distance Mag. Time & Date
No recent earthquake activity has been reported nearby.
Minimum magnitude displayed is 2.5.

Coastal Water Temperatures

Place Temperature
No Stations Reporting

Nearby Weather Stations